sensor_id;sensor_type;location;lat;lon;timestamp;P1;durP1;ratioP1;P2;durP2;ratioP2
69220;SDS011;56331;51.992;20.910;2023-02-04T00:01:49;6.10;;;3.50;;
69220;SDS011;56331;51.992;20.910;2023-02-04T00:04:15;6.12;;;3.52;;
69220;SDS011;56331;51.992;20.910;2023-02-04T00:06:42;6.10;;;3.37;;
69220;SDS011;56331;51.992;20.910;2023-02-04T00:09:09;6.20;;;3.83;;
69220;SDS011;56331;51.992;20.910;2023-02-04T00:11:37;6.17;;;3.90;;
69220;SDS011;56331;51.992;20.910;2023-02-04T00:14:03;6.33;;;3.98;;
69220;SDS011;56331;51.992;20.910;2023-02-04T00:16:30;5.40;;;3.33;;
69220;SDS011;56331;51.992;20.910;2023-02-04T00:18:57;5.40;;;3.58;;
69220;SDS011;56331;51.992;20.910;2023-02-04T00:21:23;5.50;;;3.52;;
69220;SDS011;56331;51.992;20.910;2023-02-04T00:23:50;4.92;;;3.58;;
69220;SDS011;56331;51.992;20.910;2023-02-04T00:26:16;5.90;;;4.17;;
69220;SDS011;56331;51.992;20.910;2023-02-04T00:28:43;4.95;;;3.75;;
69220;SDS011;56331;51.992;20.910;2023-02-04T00:31:09;5.17;;;3.60;;
69220;SDS011;56331;51.992;20.910;2023-02-04T00:33:36;6.45;;;3.62;;
69220;SDS011;56331;51.992;20.910;2023-02-04T00:36:03;5.55;;;3.58;;
69220;SDS011;56331;51.992;20.910;2023-02-04T00:38:30;6.03;;;3.83;;
69220;SDS011;56331;51.992;20.910;2023-02-04T00:40:56;5.03;;;3.30;;
69220;SDS011;56331;51.992;20.910;2023-02-04T00:43:23;6.65;;;3.72;;
69220;SDS011;56331;51.992;20.910;2023-02-04T00:45:58;5.70;;;3.30;;
69220;SDS011;56331;51.992;20.910;2023-02-04T00:48:27;5.80;;;3.30;;
69220;SDS011;56331;51.992;20.910;2023-02-04T00:50:54;4.25;;;3.08;;
69220;SDS011;56331;51.992;20.910;2023-02-04T00:53:21;5.00;;;2.85;;
69220;SDS011;56331;51.992;20.910;2023-02-04T00:55:47;5.15;;;3.30;;
69220;SDS011;56331;51.992;20.910;2023-02-04T00:58:14;4.60;;;3.02;;
69220;SDS011;56331;51.992;20.910;2023-02-04T01:00:40;4.42;;;3.20;;
69220;SDS011;56331;51.992;20.910;2023-02-04T01:03:06;5.10;;;3.30;;
69220;SDS011;56331;51.992;20.910;2023-02-04T01:05:33;4.62;;;3.10;;
69220;SDS011;56331;51.992;20.910;2023-02-04T01:08:00;6.05;;;3.02;;
69220;SDS011;56331;51.992;20.910;2023-02-04T01:10:27;4.58;;;3.05;;
69220;SDS011;56331;51.992;20.910;2023-02-04T01:12:54;4.78;;;2.95;;
69220;SDS011;56331;51.992;20.910;2023-02-04T01:15:20;4.30;;;3.02;;
69220;SDS011;56331;51.992;20.910;2023-02-04T01:17:48;5.05;;;3.40;;
69220;SDS011;56331;51.992;20.910;2023-02-04T01:20:15;4.28;;;2.80;;
69220;SDS011;56331;51.992;20.910;2023-02-04T01:22:42;4.67;;;3.30;;
69220;SDS011;56331;51.992;20.910;2023-02-04T01:25:08;3.77;;;2.58;;
69220;SDS011;56331;51.992;20.910;2023-02-04T01:27:35;3.70;;;2.90;;
69220;SDS011;56331;51.992;20.910;2023-02-04T01:30:02;5.53;;;3.10;;
69220;SDS011;56331;51.992;20.910;2023-02-04T01:32:30;4.92;;;3.00;;
69220;SDS011;56331;51.992;20.910;2023-02-04T01:34:56;4.78;;;2.80;;
69220;SDS011;56331;51.992;20.910;2023-02-04T01:37:23;4.42;;;2.95;;
69220;SDS011;56331;51.992;20.910;2023-02-04T01:39:51;4.45;;;2.67;;
69220;SDS011;56331;51.992;20.910;2023-02-04T01:42:17;3.90;;;2.80;;
69220;SDS011;56331;51.992;20.910;2023-02-04T01:44:44;4.42;;;2.60;;
69220;SDS011;56331;51.992;20.910;2023-02-04T01:47:11;3.67;;;2.20;;
69220;SDS011;56331;51.992;20.910;2023-02-04T01:49:38;3.83;;;2.70;;
69220;SDS011;56331;51.992;20.910;2023-02-04T01:52:04;3.85;;;2.50;;
69220;SDS011;56331;51.992;20.910;2023-02-04T01:54:31;5.42;;;2.90;;
69220;SDS011;56331;51.992;20.910;2023-02-04T01:56:57;3.47;;;2.47;;
69220;SDS011;56331;51.992;20.910;2023-02-04T01:59:27;3.70;;;2.50;;
69220;SDS011;56331;51.992;20.910;2023-02-04T02:01:53;4.37;;;2.67;;
69220;SDS011;56331;51.992;20.910;2023-02-04T02:04:22;3.72;;;2.72;;
69220;SDS011;56331;51.992;20.910;2023-02-04T02:06:53;3.60;;;2.55;;
69220;SDS011;56331;51.992;20.910;2023-02-04T02:09:25;3.47;;;2.20;;
69220;SDS011;56331;51.992;20.910;2023-02-04T02:11:54;4.53;;;2.55;;
69220;SDS011;56331;51.992;20.910;2023-02-04T02:14:21;3.92;;;2.55;;
69220;SDS011;56331;51.992;20.910;2023-02-04T02:16:47;3.65;;;2.52;;
69220;SDS011;56331;51.992;20.910;2023-02-04T02:19:15;3.55;;;2.60;;
69220;SDS011;56331;51.992;20.910;2023-02-04T02:22:04;2.95;;;2.25;;
69220;SDS011;56331;51.992;20.910;2023-02-04T02:24:31;4.65;;;3.10;;
69220;SDS011;56331;51.992;20.910;2023-02-04T02:26:59;4.65;;;2.50;;
69220;SDS011;56331;51.992;20.910;2023-02-04T02:29:28;3.60;;;2.40;;
69220;SDS011;56331;51.992;20.910;2023-02-04T02:31:55;4.12;;;2.67;;
69220;SDS011;56331;51.992;20.910;2023-02-04T02:34:23;3.20;;;2.40;;
69220;SDS011;56331;51.992;20.910;2023-02-04T02:36:52;3.70;;;2.20;;
69220;SDS011;56331;51.992;20.910;2023-02-04T02:39:19;2.83;;;2.00;;
69220;SDS011;56331;51.992;20.910;2023-02-04T02:41:46;2.92;;;2.08;;
69220;SDS011;56331;51.992;20.910;2023-02-04T02:44:14;2.70;;;2.22;;
69220;SDS011;56331;51.992;20.910;2023-02-04T02:46:43;4.33;;;2.58;;
69220;SDS011;56331;51.992;20.910;2023-02-04T02:49:12;3.62;;;2.37;;
69220;SDS011;56331;51.992;20.910;2023-02-04T02:54:11;3.90;;;2.30;;
69220;SDS011;56331;51.992;20.910;2023-02-04T02:56:49;3.58;;;2.10;;
69220;SDS011;56331;51.992;20.910;2023-02-04T02:59:16;3.77;;;2.42;;
69220;SDS011;56331;51.992;20.910;2023-02-04T03:01:43;3.10;;;2.25;;
69220;SDS011;56331;51.992;20.910;2023-02-04T03:04:13;3.25;;;2.33;;
69220;SDS011;56331;51.992;20.910;2023-02-04T03:06:42;3.27;;;2.17;;
69220;SDS011;56331;51.992;20.910;2023-02-04T03:09:08;3.92;;;2.00;;
69220;SDS011;56331;51.992;20.910;2023-02-04T03:11:35;3.25;;;2.10;;
69220;SDS011;56331;51.992;20.910;2023-02-04T03:14:02;3.75;;;2.05;;
69220;SDS011;56331;51.992;20.910;2023-02-04T03:16:30;3.00;;;2.10;;
69220;SDS011;56331;51.992;20.910;2023-02-04T03:18:59;3.12;;;2.02;;
69220;SDS011;56331;51.992;20.910;2023-02-04T03:21:26;3.17;;;1.92;;
69220;SDS011;56331;51.992;20.910;2023-02-04T03:23:53;2.40;;;1.72;;
69220;SDS011;56331;51.992;20.910;2023-02-04T03:26:22;3.15;;;2.00;;
69220;SDS011;56331;51.992;20.910;2023-02-04T03:28:49;2.37;;;1.70;;
69220;SDS011;56331;51.992;20.910;2023-02-04T03:31:15;2.87;;;2.00;;
69220;SDS011;56331;51.992;20.910;2023-02-04T03:33:42;3.40;;;2.20;;
69220;SDS011;56331;51.992;20.910;2023-02-04T03:36:08;3.65;;;2.20;;
69220;SDS011;56331;51.992;20.910;2023-02-04T03:38:35;2.83;;;1.90;;
69220;SDS011;56331;51.992;20.910;2023-02-04T03:41:01;3.27;;;2.10;;
69220;SDS011;56331;51.992;20.910;2023-02-04T03:43:28;3.22;;;1.98;;
69220;SDS011;56331;51.992;20.910;2023-02-04T03:45:55;2.75;;;1.72;;
69220;SDS011;56331;51.992;20.910;2023-02-04T03:48:22;2.65;;;1.70;;
69220;SDS011;56331;51.992;20.910;2023-02-04T03:50:48;2.17;;;1.75;;
69220;SDS011;56331;51.992;20.910;2023-02-04T03:53:14;3.05;;;1.80;;
69220;SDS011;56331;51.992;20.910;2023-02-04T03:55:41;2.52;;;1.92;;
69220;SDS011;56331;51.992;20.910;2023-02-04T03:58:08;2.10;;;1.65;;
69220;SDS011;56331;51.992;20.910;2023-02-04T04:00:34;2.22;;;1.70;;
69220;SDS011;56331;51.992;20.910;2023-02-04T04:03:01;2.42;;;1.70;;
69220;SDS011;56331;51.992;20.910;2023-02-04T04:05:27;2.47;;;1.70;;
69220;SDS011;56331;51.992;20.910;2023-02-04T04:07:53;2.92;;;1.87;;
69220;SDS011;56331;51.992;20.910;2023-02-04T04:10:20;2.70;;;1.90;;
69220;SDS011;56331;51.992;20.910;2023-02-04T04:12:46;2.85;;;1.98;;
69220;SDS011;56331;51.992;20.910;2023-02-04T04:15:13;2.47;;;1.85;;
69220;SDS011;56331;51.992;20.910;2023-02-04T04:17:40;3.22;;;1.92;;
69220;SDS011;56331;51.992;20.910;2023-02-04T04:20:09;2.67;;;1.73;;
69220;SDS011;56331;51.992;20.910;2023-02-04T04:22:37;2.22;;;1.45;;
69220;SDS011;56331;51.992;20.910;2023-02-04T04:25:04;2.10;;;1.40;;
69220;SDS011;56331;51.992;20.910;2023-02-04T04:27:32;3.22;;;1.92;;
69220;SDS011;56331;51.992;20.910;2023-02-04T04:29:58;3.35;;;2.10;;
69220;SDS011;56331;51.992;20.910;2023-02-04T04:32:25;2.50;;;1.52;;
69220;SDS011;56331;51.992;20.910;2023-02-04T04:34:51;2.08;;;1.47;;
69220;SDS011;56331;51.992;20.910;2023-02-04T04:37:18;2.45;;;1.60;;
69220;SDS011;56331;51.992;20.910;2023-02-04T04:39:44;3.10;;;1.70;;
69220;SDS011;56331;51.992;20.910;2023-02-04T04:42:30;2.17;;;1.65;;
69220;SDS011;56331;51.992;20.910;2023-02-04T04:44:56;2.42;;;1.40;;
69220;SDS011;56331;51.992;20.910;2023-02-04T04:47:23;1.75;;;1.50;;
69220;SDS011;56331;51.992;20.910;2023-02-04T04:49:49;2.42;;;1.67;;
69220;SDS011;56331;51.992;20.910;2023-02-04T04:52:17;2.12;;;1.72;;
69220;SDS011;56331;51.992;20.910;2023-02-04T04:54:44;2.45;;;1.60;;
69220;SDS011;56331;51.992;20.910;2023-02-04T04:57:10;2.35;;;1.45;;
69220;SDS011;56331;51.992;20.910;2023-02-04T04:59:36;2.20;;;1.40;;
69220;SDS011;56331;51.992;20.910;2023-02-04T05:02:03;2.20;;;1.42;;
69220;SDS011;56331;51.992;20.910;2023-02-04T05:04:30;2.35;;;1.50;;
69220;SDS011;56331;51.992;20.910;2023-02-04T05:06:56;2.45;;;1.50;;
69220;SDS011;56331;51.992;20.910;2023-02-04T05:09:23;2.35;;;1.67;;
69220;SDS011;56331;51.992;20.910;2023-02-04T05:11:49;2.17;;;1.45;;
69220;SDS011;56331;51.992;20.910;2023-02-04T05:14:15;2.70;;;1.87;;
69220;SDS011;56331;51.992;20.910;2023-02-04T05:16:42;2.85;;;1.77;;
69220;SDS011;56331;51.992;20.910;2023-02-04T05:19:08;2.20;;;1.70;;
69220;SDS011;56331;51.992;20.910;2023-02-04T05:21:35;2.70;;;1.67;;
69220;SDS011;56331;51.992;20.910;2023-02-04T05:24:01;2.83;;;1.77;;
69220;SDS011;56331;51.992;20.910;2023-02-04T05:26:30;2.67;;;1.77;;
69220;SDS011;56331;51.992;20.910;2023-02-04T05:28:56;2.12;;;1.50;;
69220;SDS011;56331;51.992;20.910;2023-02-04T05:31:26;2.12;;;1.62;;
69220;SDS011;56331;51.992;20.910;2023-02-04T05:33:54;2.60;;;1.72;;
69220;SDS011;56331;51.992;20.910;2023-02-04T05:36:21;2.30;;;1.25;;
69220;SDS011;56331;51.992;20.910;2023-02-04T05:38:47;1.85;;;1.60;;
69220;SDS011;56331;51.992;20.910;2023-02-04T05:41:14;2.33;;;1.52;;
69220;SDS011;56331;51.992;20.910;2023-02-04T05:43:40;2.02;;;1.32;;
69220;SDS011;56331;51.992;20.910;2023-02-04T05:46:09;3.52;;;1.80;;
69220;SDS011;56331;51.992;20.910;2023-02-04T05:48:35;1.95;;;1.52;;
69220;SDS011;56331;51.992;20.910;2023-02-04T05:51:02;1.98;;;1.55;;
69220;SDS011;56331;51.992;20.910;2023-02-04T05:53:29;2.25;;;1.65;;
69220;SDS011;56331;51.992;20.910;2023-02-04T05:55:55;2.60;;;1.60;;
69220;SDS011;56331;51.992;20.910;2023-02-04T05:58:24;2.08;;;1.50;;
69220;SDS011;56331;51.992;20.910;2023-02-04T06:00:53;2.00;;;1.62;;
69220;SDS011;56331;51.992;20.910;2023-02-04T06:03:19;2.25;;;1.50;;
69220;SDS011;56331;51.992;20.910;2023-02-04T06:05:46;2.33;;;1.70;;
69220;SDS011;56331;51.992;20.910;2023-02-04T06:08:12;2.25;;;1.55;;
69220;SDS011;56331;51.992;20.910;2023-02-04T06:10:41;2.60;;;1.70;;
69220;SDS011;56331;51.992;20.910;2023-02-04T06:13:08;2.25;;;1.40;;
69220;SDS011;56331;51.992;20.910;2023-02-04T06:15:34;2.60;;;1.60;;
69220;SDS011;56331;51.992;20.910;2023-02-04T06:18:01;1.60;;;1.27;;
69220;SDS011;56331;51.992;20.910;2023-02-04T06:20:27;2.45;;;1.60;;
69220;SDS011;56331;51.992;20.910;2023-02-04T06:22:54;2.45;;;1.70;;
69220;SDS011;56331;51.992;20.910;2023-02-04T06:25:21;1.80;;;1.47;;
69220;SDS011;56331;51.992;20.910;2023-02-04T06:27:47;2.42;;;1.60;;
69220;SDS011;56331;51.992;20.910;2023-02-04T06:30:14;1.70;;;1.45;;
69220;SDS011;56331;51.992;20.910;2023-02-04T06:32:42;2.40;;;1.70;;
69220;SDS011;56331;51.992;20.910;2023-02-04T06:35:09;2.55;;;1.70;;
69220;SDS011;56331;51.992;20.910;2023-02-04T06:37:37;2.42;;;1.80;;
69220;SDS011;56331;51.992;20.910;2023-02-04T06:40:04;2.08;;;1.55;;
69220;SDS011;56331;51.992;20.910;2023-02-04T06:42:33;1.77;;;1.47;;
69220;SDS011;56331;51.992;20.910;2023-02-04T06:44:59;2.42;;;1.55;;
69220;SDS011;56331;51.992;20.910;2023-02-04T06:47:26;2.80;;;1.65;;
69220;SDS011;56331;51.992;20.910;2023-02-04T06:49:52;2.65;;;1.45;;
69220;SDS011;56331;51.992;20.910;2023-02-04T06:52:19;1.80;;;1.50;;
69220;SDS011;56331;51.992;20.910;2023-02-04T06:54:45;1.92;;;1.25;;
69220;SDS011;56331;51.992;20.910;2023-02-04T06:57:11;2.42;;;1.57;;
69220;SDS011;56331;51.992;20.910;2023-02-04T06:59:39;1.75;;;1.45;;
69220;SDS011;56331;51.992;20.910;2023-02-04T07:02:09;2.67;;;1.55;;
69220;SDS011;56331;51.992;20.910;2023-02-04T07:04:37;1.87;;;1.30;;
69220;SDS011;56331;51.992;20.910;2023-02-04T07:07:08;1.87;;;1.55;;
69220;SDS011;56331;51.992;20.910;2023-02-04T07:09:35;2.33;;;1.65;;
69220;SDS011;56331;51.992;20.910;2023-02-04T07:12:02;2.77;;;1.77;;
69220;SDS011;56331;51.992;20.910;2023-02-04T07:14:29;3.10;;;1.70;;
69220;SDS011;56331;51.992;20.910;2023-02-04T07:16:56;2.52;;;1.75;;
69220;SDS011;56331;51.992;20.910;2023-02-04T07:19:23;2.30;;;1.47;;
69220;SDS011;56331;51.992;20.910;2023-02-04T07:21:50;2.35;;;1.67;;
69220;SDS011;56331;51.992;20.910;2023-02-04T07:24:19;1.80;;;1.50;;
69220;SDS011;56331;51.992;20.910;2023-02-04T07:26:48;2.12;;;1.40;;
69220;SDS011;56331;51.992;20.910;2023-02-04T07:29:15;2.08;;;1.60;;
69220;SDS011;56331;51.992;20.910;2023-02-04T07:31:42;2.83;;;1.85;;
69220;SDS011;56331;51.992;20.910;2023-02-04T07:34:14;2.80;;;1.60;;
69220;SDS011;56331;51.992;20.910;2023-02-04T07:36:41;2.55;;;1.60;;
69220;SDS011;56331;51.992;20.910;2023-02-04T07:39:08;2.65;;;1.50;;
69220;SDS011;56331;51.992;20.910;2023-02-04T07:41:36;2.80;;;1.60;;
69220;SDS011;56331;51.992;20.910;2023-02-04T07:44:02;2.80;;;1.85;;
69220;SDS011;56331;51.992;20.910;2023-02-04T07:46:29;2.02;;;1.47;;
69220;SDS011;56331;51.992;20.910;2023-02-04T07:48:56;2.65;;;1.75;;
69220;SDS011;56331;51.992;20.910;2023-02-04T07:51:22;2.62;;;1.57;;
69220;SDS011;56331;51.992;20.910;2023-02-04T07:53:51;2.00;;;1.50;;
69220;SDS011;56331;51.992;20.910;2023-02-04T07:56:18;4.20;;;2.02;;
69220;SDS011;56331;51.992;20.910;2023-02-04T07:58:44;5.55;;;1.85;;
69220;SDS011;56331;51.992;20.910;2023-02-04T08:01:10;2.67;;;1.60;;
69220;SDS011;56331;51.992;20.910;2023-02-04T08:03:37;2.30;;;1.60;;
69220;SDS011;56331;51.992;20.910;2023-02-04T08:06:03;1.80;;;1.42;;
69220;SDS011;56331;51.992;20.910;2023-02-04T08:08:29;2.45;;;1.47;;
69220;SDS011;56331;51.992;20.910;2023-02-04T08:10:58;1.80;;;1.45;;
69220;SDS011;56331;51.992;20.910;2023-02-04T08:13:24;2.12;;;1.55;;
69220;SDS011;56331;51.992;20.910;2023-02-04T08:15:50;1.90;;;1.40;;
69220;SDS011;56331;51.992;20.910;2023-02-04T08:18:17;2.27;;;1.30;;
69220;SDS011;56331;51.992;20.910;2023-02-04T08:20:43;2.20;;;1.52;;
69220;SDS011;56331;51.992;20.910;2023-02-04T08:23:12;2.12;;;1.30;;
69220;SDS011;56331;51.992;20.910;2023-02-04T08:25:39;5.58;;;1.50;;
69220;SDS011;56331;51.992;20.910;2023-02-04T08:28:05;2.45;;;1.32;;
69220;SDS011;56331;51.992;20.910;2023-02-04T08:30:32;1.70;;;1.22;;
69220;SDS011;56331;51.992;20.910;2023-02-04T08:32:59;3.30;;;1.57;;
69220;SDS011;56331;51.992;20.910;2023-02-04T08:35:25;2.47;;;1.60;;
69220;SDS011;56331;51.992;20.910;2023-02-04T08:37:51;1.45;;;1.20;;
69220;SDS011;56331;51.992;20.910;2023-02-04T08:40:18;2.10;;;1.32;;
69220;SDS011;56331;51.992;20.910;2023-02-04T08:42:48;2.12;;;1.50;;
69220;SDS011;56331;51.992;20.910;2023-02-04T08:45:13;1.47;;;1.20;;
69220;SDS011;56331;51.992;20.910;2023-02-04T08:47:40;3.67;;;1.57;;
69220;SDS011;56331;51.992;20.910;2023-02-04T08:50:07;2.05;;;1.40;;
69220;SDS011;56331;51.992;20.910;2023-02-04T08:52:35;2.20;;;1.37;;
69220;SDS011;56331;51.992;20.910;2023-02-04T08:55:01;2.25;;;1.37;;
69220;SDS011;56331;51.992;20.910;2023-02-04T08:57:28;1.72;;;1.32;;
69220;SDS011;56331;51.992;20.910;2023-02-04T08:59:55;2.42;;;1.20;;
69220;SDS011;56331;51.992;20.910;2023-02-04T09:02:21;2.00;;;1.22;;
69220;SDS011;56331;51.992;20.910;2023-02-04T09:04:53;2.05;;;1.20;;
69220;SDS011;56331;51.992;20.910;2023-02-04T09:07:19;2.30;;;1.37;;
69220;SDS011;56331;51.992;20.910;2023-02-04T09:09:46;1.65;;;1.30;;
69220;SDS011;56331;51.992;20.910;2023-02-04T09:12:13;1.50;;;1.20;;
69220;SDS011;56331;51.992;20.910;2023-02-04T09:14:39;3.77;;;1.20;;
69220;SDS011;56331;51.992;20.910;2023-02-04T09:17:05;2.62;;;1.40;;
69220;SDS011;56331;51.992;20.910;2023-02-04T09:19:34;3.92;;;1.40;;
69220;SDS011;56331;51.992;20.910;2023-02-04T09:22:20;3.22;;;1.30;;
69220;SDS011;56331;51.992;20.910;2023-02-04T09:24:48;5.35;;;1.22;;
69220;SDS011;56331;51.992;20.910;2023-02-04T09:27:15;2.00;;;1.27;;
69220;SDS011;56331;51.992;20.910;2023-02-04T09:29:41;1.67;;;1.00;;
69220;SDS011;56331;51.992;20.910;2023-02-04T09:32:08;1.67;;;1.17;;
69220;SDS011;56331;51.992;20.910;2023-02-04T09:34:34;3.05;;;1.40;;
69220;SDS011;56331;51.992;20.910;2023-02-04T09:37:01;2.17;;;1.30;;
69220;SDS011;56331;51.992;20.910;2023-02-04T09:39:27;2.02;;;1.32;;
69220;SDS011;56331;51.992;20.910;2023-02-04T09:41:54;1.98;;;1.15;;
69220;SDS011;56331;51.992;20.910;2023-02-04T09:44:21;1.80;;;1.07;;
69220;SDS011;56331;51.992;20.910;2023-02-04T09:46:51;2.60;;;1.35;;
69220;SDS011;56331;51.992;20.910;2023-02-04T09:49:20;2.45;;;1.30;;
69220;SDS011;56331;51.992;20.910;2023-02-04T09:51:47;2.25;;;1.10;;
69220;SDS011;56331;51.992;20.910;2023-02-04T09:54:15;1.72;;;1.25;;
69220;SDS011;56331;51.992;20.910;2023-02-04T09:56:44;3.47;;;1.00;;
69220;SDS011;56331;51.992;20.910;2023-02-04T09:59:19;2.70;;;1.10;;
69220;SDS011;56331;51.992;20.910;2023-02-04T10:01:54;3.75;;;1.37;;
69220;SDS011;56331;51.992;20.910;2023-02-04T10:04:27;1.50;;;1.00;;
69220;SDS011;56331;51.992;20.910;2023-02-04T10:06:54;1.62;;;1.15;;
69220;SDS011;56331;51.992;20.910;2023-02-04T10:09:25;1.80;;;1.10;;
69220;SDS011;56331;51.992;20.910;2023-02-04T10:11:51;2.90;;;1.15;;
69220;SDS011;56331;51.992;20.910;2023-02-04T10:14:19;2.17;;;1.15;;
69220;SDS011;56331;51.992;20.910;2023-02-04T10:16:52;4.33;;;1.30;;
69220;SDS011;56331;51.992;20.910;2023-02-04T10:19:17;3.37;;;1.20;;
69220;SDS011;56331;51.992;20.910;2023-02-04T10:21:44;2.95;;;1.30;;
69220;SDS011;56331;51.992;20.910;2023-02-04T10:24:13;2.33;;;0.95;;
69220;SDS011;56331;51.992;20.910;2023-02-04T10:26:49;2.87;;;1.20;;
69220;SDS011;56331;51.992;20.910;2023-02-04T10:29:16;4.75;;;1.32;;
69220;SDS011;56331;51.992;20.910;2023-02-04T10:31:48;1.60;;;1.00;;
69220;SDS011;56331;51.992;20.910;2023-02-04T10:34:20;2.52;;;1.00;;
69220;SDS011;56331;51.992;20.910;2023-02-04T10:36:52;1.37;;;1.05;;
69220;SDS011;56331;51.992;20.910;2023-02-04T10:39:23;1.55;;;0.88;;
69220;SDS011;56331;51.992;20.910;2023-02-04T10:41:59;1.47;;;0.90;;
69220;SDS011;56331;51.992;20.910;2023-02-04T10:44:25;27.05;;;4.70;;
69220;SDS011;56331;51.992;20.910;2023-02-04T10:47:06;44.85;;;5.95;;
69220;SDS011;56331;51.992;20.910;2023-02-04T10:49:34;31.90;;;5.72;;
69220;SDS011;56331;51.992;20.910;2023-02-04T10:52:12;29.35;;;4.67;;
69220;SDS011;56331;51.992;20.910;2023-02-04T10:54:34;32.53;;;5.72;;
69220;SDS011;56331;51.992;20.910;2023-02-04T10:59:53;25.30;;;4.15;;
69220;SDS011;56331;51.992;20.910;2023-02-04T11:05:09;18.48;;;3.67;;
69220;SDS011;56331;51.992;20.910;2023-02-04T11:07:38;11.05;;;3.25;;
69220;SDS011;56331;51.992;20.910;2023-02-04T11:10:05;17.30;;;2.98;;
69220;SDS011;56331;51.992;20.910;2023-02-04T11:12:58;12.78;;;2.58;;
69220;SDS011;56331;51.992;20.910;2023-02-04T11:15:47;16.50;;;3.10;;
69220;SDS011;56331;51.992;20.910;2023-02-04T11:18:05;8.33;;;2.37;;
69220;SDS011;56331;51.992;20.910;2023-02-04T11:20:33;9.68;;;2.80;;
69220;SDS011;56331;51.992;20.910;2023-02-04T11:36:54;5.50;;;2.08;;
69220;SDS011;56331;51.992;20.910;2023-02-04T11:42:02;8.08;;;2.42;;
69220;SDS011;56331;51.992;20.910;2023-02-04T11:44:34;7.83;;;1.90;;
69220;SDS011;56331;51.992;20.910;2023-02-04T11:47:00;3.62;;;1.95;;
69220;SDS011;56331;51.992;20.910;2023-02-04T11:49:29;5.12;;;1.80;;
69220;SDS011;56331;51.992;20.910;2023-02-04T11:52:06;4.75;;;1.85;;
69220;SDS011;56331;51.992;20.910;2023-02-04T11:54:34;5.58;;;1.80;;
69220;SDS011;56331;51.992;20.910;2023-02-04T11:57:01;5.10;;;1.77;;
69220;SDS011;56331;51.992;20.910;2023-02-04T11:59:27;4.37;;;1.87;;
69220;SDS011;56331;51.992;20.910;2023-02-04T12:02:04;5.20;;;1.82;;
69220;SDS011;56331;51.992;20.910;2023-02-04T12:04:37;3.58;;;1.87;;
69220;SDS011;56331;51.992;20.910;2023-02-04T12:07:03;5.87;;;1.72;;
69220;SDS011;56331;51.992;20.910;2023-02-04T12:09:30;3.90;;;1.90;;
69220;SDS011;56331;51.992;20.910;2023-02-04T12:11:58;4.83;;;1.67;;
69220;SDS011;56331;51.992;20.910;2023-02-04T12:14:35;5.22;;;2.20;;
69220;SDS011;56331;51.992;20.910;2023-02-04T12:17:21;4.40;;;2.08;;
69220;SDS011;56331;51.992;20.910;2023-02-04T12:19:39;4.97;;;1.90;;
69220;SDS011;56331;51.992;20.910;2023-02-04T12:22:06;3.90;;;1.60;;
69220;SDS011;56331;51.992;20.910;2023-02-04T12:24:34;3.87;;;1.90;;
69220;SDS011;56331;51.992;20.910;2023-02-04T12:27:01;4.12;;;2.05;;
69220;SDS011;56331;51.992;20.910;2023-02-04T12:29:27;4.22;;;2.10;;
69220;SDS011;56331;51.992;20.910;2023-02-04T12:31:56;3.33;;;1.82;;
69220;SDS011;56331;51.992;20.910;2023-02-04T12:34:23;3.00;;;1.65;;
69220;SDS011;56331;51.992;20.910;2023-02-04T12:36:49;2.42;;;1.47;;
69220;SDS011;56331;51.992;20.910;2023-02-04T12:39:16;4.53;;;1.92;;
69220;SDS011;56331;51.992;20.910;2023-02-04T12:41:42;4.60;;;1.70;;
69220;SDS011;56331;51.992;20.910;2023-02-04T12:44:09;2.52;;;1.50;;
69220;SDS011;56331;51.992;20.910;2023-02-04T12:46:36;3.92;;;1.65;;
69220;SDS011;56331;51.992;20.910;2023-02-04T12:49:05;2.37;;;1.52;;
69220;SDS011;56331;51.992;20.910;2023-02-04T12:51:32;8.03;;;1.60;;
69220;SDS011;56331;51.992;20.910;2023-02-04T12:53:58;4.58;;;1.57;;
69220;SDS011;56331;51.992;20.910;2023-02-04T12:56:24;3.30;;;1.47;;
69220;SDS011;56331;51.992;20.910;2023-02-04T12:58:51;3.17;;;1.70;;
69220;SDS011;56331;51.992;20.910;2023-02-04T13:01:17;1.85;;;1.30;;
69220;SDS011;56331;51.992;20.910;2023-02-04T13:03:44;4.60;;;1.70;;
69220;SDS011;56331;51.992;20.910;2023-02-04T13:06:10;7.72;;;1.80;;
69220;SDS011;56331;51.992;20.910;2023-02-04T13:08:37;3.52;;;1.50;;
69220;SDS011;56331;51.992;20.910;2023-02-04T13:11:03;6.75;;;1.98;;
69220;SDS011;56331;51.992;20.910;2023-02-04T13:13:31;3.58;;;1.67;;
69220;SDS011;56331;51.992;20.910;2023-02-04T13:15:57;2.85;;;1.65;;
69220;SDS011;56331;51.992;20.910;2023-02-04T13:18:23;4.55;;;1.60;;
69220;SDS011;56331;51.992;20.910;2023-02-04T13:20:50;3.92;;;2.08;;
69220;SDS011;56331;51.992;20.910;2023-02-04T13:23:16;2.95;;;1.75;;
69220;SDS011;56331;51.992;20.910;2023-02-04T13:25:43;3.47;;;1.47;;
69220;SDS011;56331;51.992;20.910;2023-02-04T13:28:10;3.33;;;1.60;;
69220;SDS011;56331;51.992;20.910;2023-02-04T13:30:36;3.55;;;1.87;;
69220;SDS011;56331;51.992;20.910;2023-02-04T13:33:07;3.27;;;1.85;;
69220;SDS011;56331;51.992;20.910;2023-02-04T13:35:33;7.33;;;1.87;;
69220;SDS011;56331;51.992;20.910;2023-02-04T13:38:00;3.92;;;1.75;;
69220;SDS011;56331;51.992;20.910;2023-02-04T13:40:29;4.78;;;1.67;;
69220;SDS011;56331;51.992;20.910;2023-02-04T13:42:55;5.45;;;1.95;;
69220;SDS011;56331;51.992;20.910;2023-02-04T13:45:22;4.15;;;1.80;;
69220;SDS011;56331;51.992;20.910;2023-02-04T13:47:50;3.20;;;1.92;;
69220;SDS011;56331;51.992;20.910;2023-02-04T13:50:17;3.40;;;1.65;;
69220;SDS011;56331;51.992;20.910;2023-02-04T13:52:43;4.03;;;1.87;;
69220;SDS011;56331;51.992;20.910;2023-02-04T13:55:09;4.22;;;1.90;;
69220;SDS011;56331;51.992;20.910;2023-02-04T13:57:36;3.40;;;1.60;;
69220;SDS011;56331;51.992;20.910;2023-02-04T14:00:03;4.75;;;2.12;;
69220;SDS011;56331;51.992;20.910;2023-02-04T14:02:32;4.37;;;2.00;;
69220;SDS011;56331;51.992;20.910;2023-02-04T14:04:59;2.55;;;1.77;;
69220;SDS011;56331;51.992;20.910;2023-02-04T14:07:27;3.77;;;1.90;;
69220;SDS011;56331;51.992;20.910;2023-02-04T14:09:55;3.80;;;1.72;;
69220;SDS011;56331;51.992;20.910;2023-02-04T14:12:21;8.25;;;1.77;;
69220;SDS011;56331;51.992;20.910;2023-02-04T14:14:47;5.95;;;1.87;;
69220;SDS011;56331;51.992;20.910;2023-02-04T14:17:14;5.22;;;1.82;;
69220;SDS011;56331;51.992;20.910;2023-02-04T14:19:40;3.22;;;1.55;;
69220;SDS011;56331;51.992;20.910;2023-02-04T14:22:06;4.87;;;1.95;;
69220;SDS011;56331;51.992;20.910;2023-02-04T14:24:37;4.42;;;1.65;;
69220;SDS011;56331;51.992;20.910;2023-02-04T14:27:02;3.77;;;2.15;;
69220;SDS011;56331;51.992;20.910;2023-02-04T14:29:30;3.33;;;2.05;;
69220;SDS011;56331;51.992;20.910;2023-02-04T14:31:57;5.33;;;1.85;;
69220;SDS011;56331;51.992;20.910;2023-02-04T14:34:23;3.52;;;1.92;;
69220;SDS011;56331;51.992;20.910;2023-02-04T14:36:50;3.87;;;2.17;;
69220;SDS011;56331;51.992;20.910;2023-02-04T14:39:16;4.05;;;1.90;;
69220;SDS011;56331;51.992;20.910;2023-02-04T14:41:42;5.03;;;2.15;;
69220;SDS011;56331;51.992;20.910;2023-02-04T14:44:09;2.60;;;1.70;;
69220;SDS011;56331;51.992;20.910;2023-02-04T14:46:35;3.95;;;2.00;;
69220;SDS011;56331;51.992;20.910;2023-02-04T14:49:02;4.45;;;2.10;;
69220;SDS011;56331;51.992;20.910;2023-02-04T14:51:28;6.40;;;2.37;;
69220;SDS011;56331;51.992;20.910;2023-02-04T14:53:54;3.72;;;2.35;;
69220;SDS011;56331;51.992;20.910;2023-02-04T14:56:21;2.83;;;2.08;;
69220;SDS011;56331;51.992;20.910;2023-02-04T14:58:47;3.47;;;1.92;;
69220;SDS011;56331;51.992;20.910;2023-02-04T15:01:14;3.62;;;1.95;;